Azalea Ace — A8ZJ6 — position and weather

sailwx.info

Track history (hours):
 
Tides and Currents Weather Stations Pressure Air Temp Water Temp Dewpoint Dewpoint Depression Visibility Wind Speed Wind Dir Waves Ship Positions

Azalea Ace

Last reported at 2015-May-24 21:21 UTC. Time now 2015-May-24 23:27 UTC.
Position N 33°21' E 134°56'.

Length 180 m; draft 7.5 m.

Type: Cargo ship. MMSI: 636015228.

Date/timePositionNaut miles runAvg speedWind from/ knotsBaromVisibWave heightAir tempDewpointWater temp
2015-May-24 21:21N 33°21' E 134°56'211 6.8
2015-May-23 14:13N 34°28' E 138°57'913.4
2015-May-23 13:33N 34°31' E 139°07'1813.6
2015-May-23 12:14N 34°39' E 139°26'912.7
2015-May-23 11:32N 34°45' E 139°34'1312.9
2015-May-23 10:33N 34°57' E 139°39'1312.7
2015-May-23 09:33N 35°09' E 139°45'1111.0
2015-May-23 08:33N 35°20' E 139°43'8 8.2
2015-May-23 07:32N 35°28' E 139°41'0 0.0
2015-May-23 06:32N 35°28' E 139°41'0 0.0
2015-May-23 05:32N 35°28' E 139°41'0 0.0
2015-May-23 04:32N 35°28' E 139°41'0 0.0
2015-May-23 03:32N 35°28' E 139°41'0 0.0
2015-May-23 02:32N 35°28' E 139°41'0 0.0
2015-May-23 01:32N 35°28' E 139°41'0 0.0
2015-May-23 00:32N 35°28' E 139°41'0 0.0
2015-May-22 23:32N 35°28' E 139°41'0 0.0
2015-May-22 22:32N 35°28' E 139°41'3 2.9
2015-May-22 21:33N 35°27' E 139°44'1110.7
2015-May-22 20:33N 35°16' E 139°46'10 9.8
2015-May-22 19:33N 35°06' E 139°46'7 6.7
2015-May-22 18:33N 35°00' E 139°43'1210.9
2015-May-22 17:25N 34°50' E 139°51'1011.0
2015-May-22 16:33N 34°51' E 140°02'1211.6
2015-May-22 15:33N 34°58' E 140°14'1312.1
2015-May-22 14:30N 35°06' E 140°27'1412.1
2015-May-22 13:21N 35°14' E 140°41'1012.2
2015-May-22 12:33N 35°19' E 140°50'1412.2
2015-May-22 11:26N 35°27' E 141°04'  
Track history (hours):
 
Tides and Currents Weather Stations Pressure Air Temp Water Temp Dewpoint Dewpoint Depression Visibility Wind Speed Wind Dir Waves Ship Positions

Azalea Ace

Last reported at 2015-May-24 21:21 UTC. Time now 2015-May-24 23:27 UTC.
Position N 33°21' E 134°56'.

Length 180 m; draft 7.5 m.

Type: Cargo ship. MMSI: 636015228.

Date/timePositionNaut miles runAvg speedWind from/ knotsBaromVisibWave heightAir tempDewpointWater temp
2015-May-24 21:21N 33°21' E 134°56'211 6.8
2015-May-23 14:13N 34°28' E 138°57'913.4
2015-May-23 13:33N 34°31' E 139°07'1813.6
2015-May-23 12:14N 34°39' E 139°26'912.7
2015-May-23 11:32N 34°45' E 139°34'1312.9
2015-May-23 10:33N 34°57' E 139°39'1312.7
2015-May-23 09:33N 35°09' E 139°45'1111.0
2015-May-23 08:33N 35°20' E 139°43'8 8.2
2015-May-23 07:32N 35°28' E 139°41'0 0.0
2015-May-23 06:32N 35°28' E 139°41'0 0.0
2015-May-23 05:32N 35°28' E 139°41'0 0.0
2015-May-23 04:32N 35°28' E 139°41'0 0.0
2015-May-23 03:32N 35°28' E 139°41'0 0.0
2015-May-23 02:32N 35°28' E 139°41'0 0.0
2015-May-23 01:32N 35°28' E 139°41'0 0.0
2015-May-23 00:32N 35°28' E 139°41'0 0.0
2015-May-22 23:32N 35°28' E 139°41'0 0.0
2015-May-22 22:32N 35°28' E 139°41'3 2.9
2015-May-22 21:33N 35°27' E 139°44'1110.7
2015-May-22 20:33N 35°16' E 139°46'10 9.8
2015-May-22 19:33N 35°06' E 139°46'7 6.7
2015-May-22 18:33N 35°00' E 139°43'1210.9
2015-May-22 17:25N 34°50' E 139°51'1011.0
2015-May-22 16:33N 34°51' E 140°02'1211.6
2015-May-22 15:33N 34°58' E 140°14'1312.1
2015-May-22 14:30N 35°06' E 140°27'1412.1
2015-May-22 13:21N 35°14' E 140°41'1012.2
2015-May-22 12:33N 35°19' E 140°50'1412.2
2015-May-22 11:26N 35°27' E 141°04'  

Dump ship's entire track history